sensor_id;sensor_type;location;lat;lon;timestamp;pressure;altitude;pressure_sealevel;temperature;humidity
13478;BME280;12598;62.382;17.344;2022-07-29T00:00:35;102097.75;;;25.39;29.20
13478;BME280;12598;62.382;17.344;2022-07-29T00:01:37;102093.34;;;25.38;29.21
13478;BME280;12598;62.382;17.344;2022-07-29T00:02:39;102086.22;;;25.29;29.00
13478;BME280;12598;62.382;17.344;2022-07-29T00:03:41;102085.34;;;25.28;28.95
13478;BME280;12598;62.382;17.344;2022-07-29T00:04:43;102103.50;;;25.36;28.81
13478;BME280;12598;62.382;17.344;2022-07-29T00:05:44;102101.66;;;25.36;29.37
13478;BME280;12598;62.382;17.344;2022-07-29T00:06:46;102079.75;;;25.22;28.98
13478;BME280;12598;62.382;17.344;2022-07-29T00:07:48;102093.84;;;25.33;28.82
13478;BME280;12598;62.382;17.344;2022-07-29T00:08:50;102098.88;;;25.28;29.13
13478;BME280;12598;62.382;17.344;2022-07-29T00:09:52;102106.38;;;25.34;28.84
13478;BME280;12598;62.382;17.344;2022-07-29T00:10:53;102103.69;;;25.34;29.34
13478;BME280;12598;62.382;17.344;2022-07-29T00:11:58;102103.81;;;25.33;28.65
13478;BME280;12598;62.382;17.344;2022-07-29T00:13:01;102103.81;;;25.33;29.47
13478;BME280;12598;62.382;17.344;2022-07-29T00:14:03;102090.94;;;25.27;29.17
13478;BME280;12598;62.382;17.344;2022-07-29T00:15:05;102100.44;;;25.31;29.31
13478;BME280;12598;62.382;17.344;2022-07-29T00:16:07;102107.53;;;25.32;29.32
13478;BME280;12598;62.382;17.344;2022-07-29T00:17:09;102091.25;;;25.24;28.96
13478;BME280;12598;62.382;17.344;2022-07-29T00:18:11;102094.97;;;25.23;29.23
13478;BME280;12598;62.382;17.344;2022-07-29T00:19:12;102103.13;;;25.31;29.02
13478;BME280;12598;62.382;17.344;2022-07-29T00:20:14;102087.88;;;25.22;28.97
13478;BME280;12598;62.382;17.344;2022-07-29T00:21:16;102105.84;;;25.31;29.02
13478;BME280;12598;62.382;17.344;2022-07-29T00:22:19;102096.84;;;25.30;28.89
13478;BME280;12598;62.382;17.344;2022-07-29T00:23:20;102096.69;;;25.24;29.02
13478;BME280;12598;62.382;17.344;2022-07-29T00:24:22;102081.19;;;25.16;29.20
13478;BME280;12598;62.382;17.344;2022-07-29T00:25:24;102106.16;;;25.28;29.55
13478;BME280;12598;62.382;17.344;2022-07-29T00:26:26;102093.09;;;25.23;29.04
13478;BME280;12598;62.382;17.344;2022-07-29T00:27:34;102103.28;;;25.29;29.33
13478;BME280;12598;62.382;17.344;2022-07-29T00:28:36;102087.50;;;25.17;29.14
13478;BME280;12598;62.382;17.344;2022-07-29T00:29:38;102097.03;;;25.29;29.09
13478;BME280;12598;62.382;17.344;2022-07-29T00:30:39;102087.19;;;25.20;29.03
13478;BME280;12598;62.382;17.344;2022-07-29T00:31:44;102089.06;;;25.27;28.99
13478;BME280;12598;62.382;17.344;2022-07-29T00:32:46;102090.91;;;25.19;29.12
13478;BME280;12598;62.382;17.344;2022-07-29T00:33:48;102102.78;;;25.26;29.62
13478;BME280;12598;62.382;17.344;2022-07-29T00:34:49;102083.91;;;25.16;28.87
13478;BME280;12598;62.382;17.344;2022-07-29T00:36:10;102100.44;;;25.31;29.00
13478;BME280;12598;62.382;17.344;2022-07-29T00:37:11;102099.06;;;25.27;28.97
13478;BME280;12598;62.382;17.344;2022-07-29T00:38:15;102092.28;;;25.23;29.10
13478;BME280;12598;62.382;17.344;2022-07-29T00:39:17;102101.91;;;25.25;29.34
13478;BME280;12598;62.382;17.344;2022-07-29T00:40:19;102102.09;;;25.24;29.27
13478;BME280;12598;62.382;17.344;2022-07-29T00:41:24;102095.81;;;25.23;29.37
13478;BME280;12598;62.382;17.344;2022-07-29T00:42:25;102083.56;;;25.11;29.43
13478;BME280;12598;62.382;17.344;2022-07-29T00:43:27;102092.59;;;25.20;29.07
13478;BME280;12598;62.382;17.344;2022-07-29T00:44:29;102094.28;;;25.21;29.06
13478;BME280;12598;62.382;17.344;2022-07-29T00:45:31;102083.41;;;25.13;29.03
13478;BME280;12598;62.382;17.344;2022-07-29T00:46:33;102093.63;;;25.19;29.37
13478;BME280;12598;62.382;17.344;2022-07-29T00:47:35;102083.00;;;25.08;29.25
13478;BME280;12598;62.382;17.344;2022-07-29T00:48:37;102093.91;;;25.16;29.20
13478;BME280;12598;62.382;17.344;2022-07-29T00:49:41;102103.44;;;25.20;29.17
13478;BME280;12598;62.382;17.344;2022-07-29T00:50:43;102088.81;;;25.13;29.35
13478;BME280;12598;62.382;17.344;2022-07-29T00:51:45;102099.03;;;25.19;29.44
13478;BME280;12598;62.382;17.344;2022-07-29T00:52:47;102078.31;;;25.10;29.18
13478;BME280;12598;62.382;17.344;2022-07-29T00:53:50;102087.13;;;25.12;29.03
13478;BME280;12598;62.382;17.344;2022-07-29T00:54:52;102103.75;;;25.17;29.52
13478;BME280;12598;62.382;17.344;2022-07-29T00:55:55;102099.19;;;25.17;28.90
13478;BME280;12598;62.382;17.344;2022-07-29T00:56:57;102084.19;;;25.05;29.11
13478;BME280;12598;62.382;17.344;2022-07-29T00:58:00;102103.56;;;25.18;29.04
13478;BME280;12598;62.382;17.344;2022-07-29T00:59:02;102104.72;;;25.16;29.43
13478;BME280;12598;62.382;17.344;2022-07-29T01:00:05;102100.16;;;25.16;29.44
13478;BME280;12598;62.382;17.344;2022-07-29T01:01:07;102101.06;;;25.17;29.42
13478;BME280;12598;62.382;17.344;2022-07-29T01:02:09;102084.88;;;25.07;29.24
13478;BME280;12598;62.382;17.344;2022-07-29T01:03:12;102099.47;;;25.14;29.36
13478;BME280;12598;62.382;17.344;2022-07-29T01:04:14;102096.59;;;25.16;29.23
13478;BME280;12598;62.382;17.344;2022-07-29T01:05:19;102099.47;;;25.14;29.42
13478;BME280;12598;62.382;17.344;2022-07-29T01:06:22;102097.78;;;25.13;29.01
13478;BME280;12598;62.382;17.344;2022-07-29T01:07:26;102085.34;;;25.03;29.16
13478;BME280;12598;62.382;17.344;2022-07-29T01:08:29;102099.47;;;25.14;29.25
13478;BME280;12598;62.382;17.344;2022-07-29T01:09:34;102100.47;;;25.13;28.88
13478;BME280;12598;62.382;17.344;2022-07-29T01:10:47;102081.63;;;25.04;29.18
13478;BME280;12598;62.382;17.344;2022-07-29T01:11:50;102104.72;;;25.16;29.16
13478;BME280;12598;62.382;17.344;2022-07-29T01:12:54;102090.44;;;25.06;29.05
13478;BME280;12598;62.382;17.344;2022-07-29T01:13:58;102099.66;;;25.13;29.49
13478;BME280;12598;62.382;17.344;2022-07-29T01:15:02;102102.34;;;25.13;29.39
13478;BME280;12598;62.382;17.344;2022-07-29T01:16:30;102107.16;;;25.19;29.38
13478;BME280;12598;62.382;17.344;2022-07-29T01:18:20;102107.16;;;25.19;29.26
13478;BME280;12598;62.382;17.344;2022-07-29T01:19:19;102094.63;;;25.18;28.91
13478;BME280;12598;62.382;17.344;2022-07-29T01:21:53;102112.25;;;25.22;28.88
13478;BME280;12598;62.382;17.344;2022-07-29T01:29:45;102109.47;;;25.14;28.80
13478;BME280;12598;62.382;17.344;2022-07-29T01:30:51;102105.06;;;25.13;29.49
13478;BME280;12598;62.382;17.344;2022-07-29T01:32:13;102102.81;;;25.08;29.42
13478;BME280;12598;62.382;17.344;2022-07-29T01:33:32;102110.28;;;25.14;29.33
13478;BME280;12598;62.382;17.344;2022-07-29T01:35:03;102109.16;;;25.17;29.20
13478;BME280;12598;62.382;17.344;2022-07-29T01:36:12;102116.91;;;25.12;29.46
13478;BME280;12598;62.382;17.344;2022-07-29T01:37:18;102109.78;;;25.11;29.35
13478;BME280;12598;62.382;17.344;2022-07-29T01:38:25;102111.94;;;25.07;29.28
13478;BME280;12598;62.382;17.344;2022-07-29T01:39:34;102102.47;;;25.03;29.21
13478;BME280;12598;62.382;17.344;2022-07-29T01:40:40;102113.78;;;25.07;29.06
13478;BME280;12598;62.382;17.344;2022-07-29T01:43:16;102107.22;;;25.09;28.99
13478;BME280;12598;62.382;17.344;2022-07-29T01:44:22;102108.69;;;25.04;29.60
13478;BME280;12598;62.382;17.344;2022-07-29T01:45:40;102108.69;;;25.04;29.64
13478;BME280;12598;62.382;17.344;2022-07-29T01:46:49;102112.09;;;25.06;29.67
13478;BME280;12598;62.382;17.344;2022-07-29T01:48:21;102117.91;;;25.11;29.13
13478;BME280;12598;62.382;17.344;2022-07-29T01:49:27;102100.75;;;25.02;29.15
13478;BME280;12598;62.382;17.344;2022-07-29T01:50:35;102107.69;;;25.05;29.54
13478;BME280;12598;62.382;17.344;2022-07-29T01:51:44;102107.00;;;25.03;29.58
13478;BME280;12598;62.382;17.344;2022-07-29T01:52:54;102102.94;;;24.99;29.47
13478;BME280;12598;62.382;17.344;2022-07-29T01:55:40;102103.84;;;25.07;28.94
13478;BME280;12598;62.382;17.344;2022-07-29T01:56:45;102103.28;;;25.04;29.30
13478;BME280;12598;62.382;17.344;2022-07-29T01:57:49;102084.25;;;24.88;29.43
13478;BME280;12598;62.382;17.344;2022-07-29T01:58:52;102104.94;;;24.97;29.38
13478;BME280;12598;62.382;17.344;2022-07-29T01:59:57;102105.97;;;24.96;29.35
13478;BME280;12598;62.382;17.344;2022-07-29T02:01:01;102105.97;;;24.96;29.91
13478;BME280;12598;62.382;17.344;2022-07-29T02:02:06;102115.09;;;24.95;29.78
13478;BME280;12598;62.382;17.344;2022-07-29T02:03:11;102112.38;;;24.95;29.86
13478;BME280;12598;62.382;17.344;2022-07-29T02:04:16;102099.81;;;24.86;29.64
13478;BME280;12598;62.382;17.344;2022-07-29T02:05:32;102112.06;;;24.98;29.76
13478;BME280;12598;62.382;17.344;2022-07-29T02:06:37;102103.75;;;24.91;29.56
13478;BME280;12598;62.382;17.344;2022-07-29T02:07:40;102109.66;;;24.95;29.75
13478;BME280;12598;62.382;17.344;2022-07-29T02:08:44;102113.38;;;24.94;29.42
13478;BME280;12598;62.382;17.344;2022-07-29T02:09:49;102100.66;;;24.86;29.77
13478;BME280;12598;62.382;17.344;2022-07-29T02:10:52;102109.47;;;24.88;29.94
13478;BME280;12598;62.382;17.344;2022-07-29T02:11:57;102118.13;;;24.92;29.90
13478;BME280;12598;62.382;17.344;2022-07-29T02:13:02;102106.06;;;24.86;29.76
13478;BME280;12598;62.382;17.344;2022-07-29T02:14:04;102100.97;;;24.83;29.58
13478;BME280;12598;62.382;17.344;2022-07-29T02:15:07;102098.59;;;24.80;29.50
13478;BME280;12598;62.382;17.344;2022-07-29T02:16:12;102098.59;;;24.80;29.48
13478;BME280;12598;62.382;17.344;2022-07-29T02:17:21;102111.19;;;24.89;29.50
13478;BME280;12598;62.382;17.344;2022-07-29T02:18:26;102103.84;;;24.82;29.64
13478;BME280;12598;62.382;17.344;2022-07-29T02:19:31;102093.03;;;24.82;29.70
13478;BME280;12598;62.382;17.344;2022-07-29T02:20:34;102110.63;;;24.86;29.59
13478;BME280;12598;62.382;17.344;2022-07-29T02:21:36;102104.91;;;24.89;29.55
13478;BME280;12598;62.382;17.344;2022-07-29T02:22:39;102095.38;;;24.77;29.89
13478;BME280;12598;62.382;17.344;2022-07-29T02:23:42;102106.91;;;24.87;29.33
13478;BME280;12598;62.382;17.344;2022-07-29T02:24:52;102112.00;;;24.90;29.55
13478;BME280;12598;62.382;17.344;2022-07-29T02:25:56;102114.91;;;24.88;29.38
13478;BME280;12598;62.382;17.344;2022-07-29T02:26:59;102114.03;;;24.88;29.53
13478;BME280;12598;62.382;17.344;2022-07-29T02:28:04;102118.56;;;24.87;30.02
13478;BME280;12598;62.382;17.344;2022-07-29T02:29:07;102108.41;;;24.81;29.84
13478;BME280;12598;62.382;17.344;2022-07-29T02:30:11;102105.22;;;24.86;29.31
13478;BME280;12598;62.382;17.344;2022-07-29T02:31:14;102105.88;;;24.80;29.78
13478;BME280;12598;62.382;17.344;2022-07-29T02:32:19;102116.88;;;24.86;29.92
13478;BME280;12598;62.382;17.344;2022-07-29T02:33:23;102097.06;;;24.78;29.57
13478;BME280;12598;62.382;17.344;2022-07-29T02:34:28;102092.28;;;24.72;29.61
13478;BME280;12598;62.382;17.344;2022-07-29T02:35:31;102104.16;;;24.79;29.56
13478;BME280;12598;62.382;17.344;2022-07-29T02:36:36;102111.78;;;24.83;29.74
13478;BME280;12598;62.382;17.344;2022-07-29T02:37:38;102109.25;;;24.82;29.58
13478;BME280;12598;62.382;17.344;2022-07-29T02:38:42;102115.69;;;24.81;29.68
13478;BME280;12598;62.382;17.344;2022-07-29T02:39:56;102109.78;;;24.85;30.10
13478;BME280;12598;62.382;17.344;2022-07-29T02:41:01;102108.41;;;24.81;29.90
13478;BME280;12598;62.382;17.344;2022-07-29T02:42:07;102085.19;;;24.71;29.56
13478;BME280;12598;62.382;17.344;2022-07-29T02:43:10;102103.66;;;24.83;30.11
13478;BME280;12598;62.382;17.344;2022-07-29T02:44:19;102110.41;;;24.79;29.71
13478;BME280;12598;62.382;17.344;2022-07-29T02:45:22;102107.38;;;24.82;29.97
13478;BME280;12598;62.382;17.344;2022-07-29T02:46:31;102109.25;;;24.82;29.95
13478;BME280;12598;62.382;17.344;2022-07-29T02:47:42;102117.06;;;24.85;29.47
13478;BME280;12598;62.382;17.344;2022-07-29T02:50:21;102109.09;;;24.83;29.46
13478;BME280;12598;62.382;17.344;2022-07-29T02:51:45;102110.47;;;24.87;29.45
13478;BME280;12598;62.382;17.344;2022-07-29T02:52:54;102074.97;;;24.65;29.46
13478;BME280;12598;62.382;17.344;2022-07-29T02:54:01;102117.75;;;24.87;29.21
13478;BME280;12598;62.382;17.344;2022-07-29T02:56:13;102123.78;;;24.81;29.46
13478;BME280;12598;62.382;17.344;2022-07-29T02:57:31;102123.47;;;24.84;29.91
13478;BME280;12598;62.382;17.344;2022-07-29T02:58:40;102113.81;;;24.81;30.04
13478;BME280;12598;62.382;17.344;2022-07-29T02:59:45;102116.38;;;24.83;29.70
13478;BME280;12598;62.382;17.344;2022-07-29T03:00:50;102104.13;;;24.71;29.69
13478;BME280;12598;62.382;17.344;2022-07-29T03:01:55;102116.00;;;24.78;29.55
13478;BME280;12598;62.382;17.344;2022-07-29T03:02:59;102117.00;;;24.77;30.15
13478;BME280;12598;62.382;17.344;2022-07-29T03:04:03;102105.28;;;24.68;29.59
13478;BME280;12598;62.382;17.344;2022-07-29T03:05:08;102106.28;;;24.67;29.54
13478;BME280;12598;62.382;17.344;2022-07-29T03:06:13;102121.72;;;24.75;29.78
13478;BME280;12598;62.382;17.344;2022-07-29T03:07:36;102103.78;;;24.74;29.60
13478;BME280;12598;62.382;17.344;2022-07-29T03:08:40;102113.63;;;24.75;29.72
13478;BME280;12598;62.382;17.344;2022-07-29T03:09:42;102118.34;;;24.73;29.73
13478;BME280;12598;62.382;17.344;2022-07-29T03:10:45;102104.72;;;24.65;29.50
13478;BME280;12598;62.382;17.344;2022-07-29T03:11:48;102115.09;;;24.69;29.87
13478;BME280;12598;62.382;17.344;2022-07-29T03:12:51;102108.97;;;24.67;30.02
13478;BME280;12598;62.382;17.344;2022-07-29T03:13:54;102129.31;;;24.71;29.78
13478;BME280;12598;62.382;17.344;2022-07-29T03:14:57;102119.34;;;24.72;29.73
13478;BME280;12598;62.382;17.344;2022-07-29T03:16:00;102119.66;;;24.69;29.66
13478;BME280;12598;62.382;17.344;2022-07-29T03:17:03;102110.44;;;24.62;30.06
13478;BME280;12598;62.382;17.344;2022-07-29T03:18:05;102112.31;;;24.61;29.64
13478;BME280;12598;62.382;17.344;2022-07-29T03:19:08;102124.75;;;24.72;29.67
13478;BME280;12598;62.382;17.344;2022-07-29T03:20:10;102129.31;;;24.71;29.90
13478;BME280;12598;62.382;17.344;2022-07-29T03:21:13;102130.84;;;24.74;29.73
13478;BME280;12598;62.382;17.344;2022-07-29T03:22:15;102116.56;;;24.64;29.78
13478;BME280;12598;62.382;17.344;2022-07-29T03:23:21;102136.41;;;24.72;29.68
13478;BME280;12598;62.382;17.344;2022-07-29T03:24:29;102136.41;;;24.72;29.74
13478;BME280;12598;62.382;17.344;2022-07-29T03:25:31;102134.72;;;24.71;30.25
13478;BME280;12598;62.382;17.344;2022-07-29T03:26:33;102133.56;;;24.74;30.19
13478;BME280;12598;62.382;17.344;2022-07-29T03:27:35;102120.25;;;24.63;30.29
13478;BME280;12598;62.382;17.344;2022-07-29T03:28:37;102129.31;;;24.71;29.52
13478;BME280;12598;62.382;17.344;2022-07-29T03:29:40;102131.00;;;24.72;30.28
13478;BME280;12598;62.382;17.344;2022-07-29T03:30:50;102125.34;;;24.66;29.76
13478;BME280;12598;62.382;17.344;2022-07-29T03:31:52;102131.00;;;24.72;29.93
13478;BME280;12598;62.382;17.344;2022-07-29T03:32:54;102119.81;;;24.67;30.19
13478;BME280;12598;62.382;17.344;2022-07-29T03:33:59;102111.31;;;24.62;29.97
13478;BME280;12598;62.382;17.344;2022-07-29T03:35:01;102112.47;;;24.60;30.05
13478;BME280;12598;62.382;17.344;2022-07-29T03:36:03;102122.81;;;24.64;29.75
13478;BME280;12598;62.382;17.344;2022-07-29T03:37:06;102131.31;;;24.69;29.71
13478;BME280;12598;62.382;17.344;2022-07-29T03:38:08;102121.13;;;24.63;29.77
13478;BME280;12598;62.382;17.344;2022-07-29T03:39:12;102134.19;;;24.68;29.84
13478;BME280;12598;62.382;17.344;2022-07-29T03:40:27;102131.63;;;24.66;30.09
13478;BME280;12598;62.382;17.344;2022-07-29T03:41:33;102124.38;;;24.67;29.81
13478;BME280;12598;62.382;17.344;2022-07-29T03:42:39;102131.19;;;24.71;29.92
13478;BME280;12598;62.382;17.344;2022-07-29T03:43:44;102133.88;;;24.71;29.78
13478;BME280;12598;62.382;17.344;2022-07-29T03:44:51;102121.97;;;24.64;29.72
13478;BME280;12598;62.382;17.344;2022-07-29T03:45:54;102121.13;;;24.63;29.99
13478;BME280;12598;62.382;17.344;2022-07-29T03:46:59;102125.22;;;24.67;30.22
13478;BME280;12598;62.382;17.344;2022-07-29T03:48:08;102130.47;;;24.69;30.29
13478;BME280;12598;62.382;17.344;2022-07-29T03:49:12;102116.88;;;24.61;29.66
13478;BME280;12598;62.382;17.344;2022-07-29T03:50:16;102132.31;;;24.68;29.82
13478;BME280;12598;62.382;17.344;2022-07-29T03:51:20;102121.44;;;24.60;30.22
13478;BME280;12598;62.382;17.344;2022-07-29T03:52:34;102117.56;;;24.63;30.21
13478;BME280;12598;62.382;17.344;2022-07-29T03:53:37;102117.19;;;24.58;29.66
13478;BME280;12598;62.382;17.344;2022-07-29T03:54:39;102127.00;;;24.59;30.08
13478;BME280;12598;62.382;17.344;2022-07-29T03:55:44;102129.06;;;24.65;30.05
13478;BME280;12598;62.382;17.344;2022-07-29T03:56:48;102120.75;;;24.58;30.03
13478;BME280;12598;62.382;17.344;2022-07-29T03:57:51;102122.47;;;24.59;30.14
13478;BME280;12598;62.382;17.344;2022-07-29T03:58:54;102127.22;;;24.65;30.29
13478;BME280;12598;62.382;17.344;2022-07-29T03:59:57;102118.06;;;24.58;30.07
13478;BME280;12598;62.382;17.344;2022-07-29T04:01:00;102127.38;;;24.64;29.80
13478;BME280;12598;62.382;17.344;2022-07-29T04:02:06;102132.78;;;24.64;29.92
13478;BME280;12598;62.382;17.344;2022-07-29T04:03:10;102131.50;;;24.68;30.26
13478;BME280;12598;62.382;17.344;2022-07-29T04:04:16;102124.97;;;24.61;29.99
13478;BME280;12598;62.382;17.344;2022-07-29T04:05:18;102132.78;;;24.64;30.06
13478;BME280;12598;62.382;17.344;2022-07-29T04:06:20;102082.81;;;24.33;29.97
13478;BME280;12598;62.382;17.344;2022-07-29T04:07:22;102130.94;;;24.64;29.79
13478;BME280;12598;62.382;17.344;2022-07-29T04:08:24;102127.38;;;24.64;29.68
13478;BME280;12598;62.382;17.344;2022-07-29T04:09:26;102126.53;;;24.63;30.30
13478;BME280;12598;62.382;17.344;2022-07-29T04:10:28;102120.91;;;24.57;30.13
13478;BME280;12598;62.382;17.344;2022-07-29T04:11:33;102132.78;;;24.64;30.43
13478;BME280;12598;62.382;17.344;2022-07-29T04:12:54;102129.94;;;24.65;30.12
13478;BME280;12598;62.382;17.344;2022-07-29T04:13:56;102113.47;;;24.59;30.00
13478;BME280;12598;62.382;17.344;2022-07-29T04:14:58;102109.56;;;24.53;30.31
13478;BME280;12598;62.382;17.344;2022-07-29T04:16:00;102108.38;;;24.56;30.16
13478;BME280;12598;62.382;17.344;2022-07-29T04:17:02;102121.13;;;24.63;29.88
13478;BME280;12598;62.382;17.344;2022-07-29T04:18:05;102094.47;;;24.51;29.82
13478;BME280;12598;62.382;17.344;2022-07-29T04:19:07;102126.53;;;24.63;30.17
13478;BME280;12598;62.382;17.344;2022-07-29T04:20:09;102129.38;;;24.62;29.85
13478;BME280;12598;62.382;17.344;2022-07-29T04:21:14;102127.38;;;24.64;30.40
13478;BME280;12598;62.382;17.344;2022-07-29T04:22:16;102105.84;;;24.54;30.11
13478;BME280;12598;62.382;17.344;2022-07-29T04:23:17;102122.59;;;24.58;30.32
13478;BME280;12598;62.382;17.344;2022-07-29T04:24:19;102101.88;;;24.49;30.34
13478;BME280;12598;62.382;17.344;2022-07-29T04:25:21;102124.84;;;24.62;30.20
13478;BME280;12598;62.382;17.344;2022-07-29T04:26:23;102122.97;;;24.63;30.17
13478;BME280;12598;62.382;17.344;2022-07-29T04:27:25;102123.97;;;24.62;30.74
13478;BME280;12598;62.382;17.344;2022-07-29T04:28:27;102110.41;;;24.54;30.10
13478;BME280;12598;62.382;17.344;2022-07-29T04:29:29;102110.41;;;24.54;30.51
13478;BME280;12598;62.382;17.344;2022-07-29T04:30:32;102100.91;;;24.50;30.40
13478;BME280;12598;62.382;17.344;2022-07-29T04:31:35;102123.28;;;24.60;30.11
13478;BME280;12598;62.382;17.344;2022-07-29T04:32:37;102116.03;;;24.60;30.21
13478;BME280;12598;62.382;17.344;2022-07-29T04:33:39;102114.47;;;24.58;30.53
13478;BME280;12598;62.382;17.344;2022-07-29T04:34:41;102097.34;;;24.49;30.24
13478;BME280;12598;62.382;17.344;2022-07-29T04:35:43;102114.16;;;24.61;30.48
13478;BME280;12598;62.382;17.344;2022-07-29T04:36:53;102125.06;;;24.69;30.14
13478;BME280;12598;62.382;17.344;2022-07-29T04:37:54;102111.78;;;24.58;30.43
13478;BME280;12598;62.382;17.344;2022-07-29T04:38:56;102140.28;;;24.70;30.12
13478;BME280;12598;62.382;17.344;2022-07-29T04:39:58;102116.88;;;24.61;30.44
13478;BME280;12598;62.382;17.344;2022-07-29T04:41:00;102127.53;;;24.62;30.56
13478;BME280;12598;62.382;17.344;2022-07-29T04:42:02;102133.88;;;24.71;30.73
13478;BME280;12598;62.382;17.344;2022-07-29T04:43:04;102138.44;;;24.70;30.85
13478;BME280;12598;62.382;17.344;2022-07-29T04:44:06;102138.44;;;24.70;30.53
13478;BME280;12598;62.382;17.344;2022-07-29T04:45:09;102123.97;;;24.62;30.42
13478;BME280;12598;62.382;17.344;2022-07-29T04:46:11;102139.13;;;24.72;30.61
13478;BME280;12598;62.382;17.344;2022-07-29T04:47:13;102121.28;;;24.62;30.37
13478;BME280;12598;62.382;17.344;2022-07-29T04:48:15;102123.66;;;24.65;30.50
13478;BME280;12598;62.382;17.344;2022-07-29T04:49:17;102134.56;;;24.73;30.69
13478;BME280;12598;62.382;17.344;2022-07-29T04:50:19;102128.78;;;24.68;30.41
13478;BME280;12598;62.382;17.344;2022-07-29T04:51:23;102119.94;;;24.66;30.10
13478;BME280;12598;62.382;17.344;2022-07-29T04:52:24;102130.63;;;24.67;30.52
13478;BME280;12598;62.382;17.344;2022-07-29T04:53:26;102117.03;;;24.59;29.95
13478;BME280;12598;62.382;17.344;2022-07-29T04:54:28;102122.50;;;24.67;30.39
13478;BME280;12598;62.382;17.344;2022-07-29T04:55:30;102127.09;;;24.67;30.54
13478;BME280;12598;62.382;17.344;2022-07-29T04:56:32;102115.72;;;24.63;30.21
13478;BME280;12598;62.382;17.344;2022-07-29T04:57:34;102131.50;;;24.68;30.40
13478;BME280;12598;62.382;17.344;2022-07-29T04:58:37;102131.88;;;24.73;30.14
13478;BME280;12598;62.382;17.344;2022-07-29T04:59:38;102136.97;;;24.76;29.95
13478;BME280;12598;62.382;17.344;2022-07-29T05:00:40;102139.66;;;24.76;30.11
13478;BME280;12598;62.382;17.344;2022-07-29T05:01:42;102116.88;;;24.61;30.12
13478;BME280;12598;62.382;17.344;2022-07-29T05:02:44;102132.56;;;24.75;30.58
13478;BME280;12598;62.382;17.344;2022-07-29T05:03:46;102134.41;;;24.74;30.37
13478;BME280;12598;62.382;17.344;2022-07-29T05:04:48;102133.34;;;24.67;30.29
13478;BME280;12598;62.382;17.344;2022-07-29T05:05:50;102127.91;;;24.67;30.41
13478;BME280;12598;62.382;17.344;2022-07-29T05:06:52;102139.81;;;24.74;30.41
13478;BME280;12598;62.382;17.344;2022-07-29T05:07:53;102136.41;;;24.72;30.36
13478;BME280;12598;62.382;17.344;2022-07-29T05:08:55;102134.72;;;24.71;30.40
13478;BME280;12598;62.382;17.344;2022-07-29T05:09:57;102143.06;;;24.78;30.53
13478;BME280;12598;62.382;17.344;2022-07-29T05:10:59;102141.19;;;24.78;30.18
13478;BME280;12598;62.382;17.344;2022-07-29T05:12:12;102147.97;;;24.82;30.49
13478;BME280;12598;62.382;17.344;2022-07-29T05:13:14;102140.53;;;24.84;30.27
13478;BME280;12598;62.382;17.344;2022-07-29T05:14:17;102126.97;;;24.76;30.20
13478;BME280;12598;62.382;17.344;2022-07-29T05:15:20;102139.41;;;24.87;30.20
13478;BME280;12598;62.382;17.344;2022-07-29T05:16:22;102144.50;;;24.90;30.18
13478;BME280;12598;62.382;17.344;2022-07-29T05:17:24;102146.19;;;24.91;29.90
13478;BME280;12598;62.382;17.344;2022-07-29T05:18:26;102127.19;;;24.83;29.91
13478;BME280;12598;62.382;17.344;2022-07-29T05:19:27;102134.53;;;24.90;29.79
13478;BME280;12598;62.382;17.344;2022-07-29T05:20:30;102142.69;;;24.98;30.18
13478;BME280;12598;62.382;17.344;2022-07-29T05:21:32;102129.63;;;24.94;29.84
13478;BME280;12598;62.382;17.344;2022-07-29T05:22:34;102141.19;;;25.04;30.07
13478;BME280;12598;62.382;17.344;2022-07-29T05:23:35;102135.78;;;25.04;29.69
13478;BME280;12598;62.382;17.344;2022-07-29T05:24:37;102131.38;;;25.03;29.50
13478;BME280;12598;62.382;17.344;2022-07-29T05:25:39;102121.56;;;25.02;29.64
13478;BME280;12598;62.382;17.344;2022-07-29T05:26:45;102118.38;;;25.06;29.29
13478;BME280;12598;62.382;17.344;2022-07-29T05:27:47;102126.53;;;25.14;29.55
13478;BME280;12598;62.382;17.344;2022-07-29T05:28:51;102123.41;;;25.19;29.47
13478;BME280;12598;62.382;17.344;2022-07-29T05:29:53;102135.28;;;25.26;29.68
13478;BME280;12598;62.382;17.344;2022-07-29T05:30:55;102131.22;;;25.30;29.75
13478;BME280;12598;62.382;17.344;2022-07-29T05:31:58;102132.94;;;25.31;29.59
13478;BME280;12598;62.382;17.344;2022-07-29T05:33:00;102134.28;;;25.35;29.44
13478;BME280;12598;62.382;17.344;2022-07-29T05:34:02;102138.56;;;25.37;29.40
13478;BME280;12598;62.382;17.344;2022-07-29T05:35:04;102132.28;;;25.37;29.20
13478;BME280;12598;62.382;17.344;2022-07-29T05:36:06;102123.31;;;25.36;29.15
13478;BME280;12598;62.382;17.344;2022-07-29T05:37:09;102136.56;;;25.47;28.75
13478;BME280;12598;62.382;17.344;2022-07-29T05:38:11;102111.81;;;25.34;29.06
13478;BME280;12598;62.382;17.344;2022-07-29T05:39:12;102112.66;;;25.43;29.08
13478;BME280;12598;62.382;17.344;2022-07-29T05:40:14;102137.44;;;25.56;28.69
13478;BME280;12598;62.382;17.344;2022-07-29T05:41:16;102135.44;;;25.58;29.23
13478;BME280;12598;62.382;17.344;2022-07-29T05:42:18;102128.13;;;25.58;28.69
13478;BME280;12598;62.382;17.344;2022-07-29T05:43:20;102132.22;;;25.62;28.96
13478;BME280;12598;62.382;17.344;2022-07-29T05:44:22;102134.78;;;25.63;29.16
13478;BME280;12598;62.382;17.344;2022-07-29T05:45:26;102123.59;;;25.59;28.79
13478;BME280;12598;62.382;17.344;2022-07-29T05:46:28;102126.63;;;25.63;28.95